Time;durP1;ratioP1;P1;durP2;ratioP2;P2;SDS_P1;SDS_P2;PMS_P1;PMS_P2;Temp;Humidity;BMP_temperature;BMP_pressure;BME280_temperature;BME280_humidity;BME280_pressure;Samples;Min_cycle;Max_cycle;Signal;HPM_P1;HPM_P2
2023/07/24 00:00:49;;;;;;;12.60;5.25;;;;;;;16.95;100.00;98195.25;5022849;28;20120;-73
2023/07/24 00:03:15;;;;;;;12.23;5.88;;;;;;;16.77;100.00;98190.97;5027549;28;20036;-73
2023/07/24 00:05:40;;;;;;;16.65;5.97;;;;;;;16.43;100.00;98170.16;5025294;28;20406;-73
2023/07/24 00:08:06;;;;;;;13.50;5.90;;;;;;;16.21;100.00;98183.81;5029769;28;20044;-73
2023/07/24 00:10:32;;;;;;;16.42;6.95;;;;;;;16.15;100.00;98193.03;5024140;28;20033;-73
2023/07/24 00:12:57;;;;;;;11.30;5.78;;;;;;;16.07;100.00;98177.09;5033190;28;20029;-73
2023/07/24 00:15:22;;;;;;;11.07;5.88;;;;;;;15.96;100.00;98167.16;5026349;28;20048;-72
2023/07/24 00:17:48;;;;;;;10.65;5.68;;;;;;;16.16;100.00;98163.81;5025092;28;20028;-72
2023/07/24 00:20:13;;;;;;;10.20;5.50;;;;;;;16.14;100.00;98150.44;5026324;28;20036;-72
2023/07/24 00:22:38;;;;;;;14.45;6.90;;;;;;;16.39;100.00;98160.81;5023121;28;20037;-73
2023/07/24 00:25:05;;;;;;;14.48;7.15;;;;;;;16.34;100.00;98149.84;5031515;28;20072;-73
2023/07/24 00:27:31;;;;;;;19.75;6.82;;;;;;;16.53;100.00;98147.59;5016444;28;20562;-72
2023/07/24 00:29:56;;;;;;;17.27;7.55;;;;;;;16.43;100.00;98155.69;5024751;28;20112;-72
2023/07/24 00:32:21;;;;;;;14.25;6.70;;;;;;;16.41;100.00;98172.31;5026887;28;20037;-72
2023/07/24 00:34:47;;;;;;;12.80;7.03;;;;;;;16.39;100.00;98157.25;5015752;28;20406;-73
2023/07/24 00:37:12;;;;;;;15.57;6.78;;;;;;;16.37;100.00;98159.41;5023951;28;20399;-72
2023/07/24 00:39:37;;;;;;;13.85;6.60;;;;;;;16.28;100.00;98148.13;5029248;28;20556;-72
2023/07/24 00:42:03;;;;;;;13.55;6.68;;;;;;;16.38;100.00;98158.34;5035645;28;20037;-72
2023/07/24 00:44:28;;;;;;;12.45;6.90;;;;;;;16.32;100.00;98153.91;5044586;28;20037;-72
2023/07/24 00:46:54;;;;;;;13.50;6.78;;;;;;;16.25;100.00;98156.84;5025511;28;20063;-72
2023/07/24 00:49:20;;;;;;;17.05;6.80;;;;;;;16.29;100.00;98152.50;5026329;28;20026;-73
2023/07/24 00:51:46;;;;;;;16.17;7.32;;;;;;;16.21;100.00;98150.25;5024131;28;20030;-72
2023/07/24 00:54:15;;;;;;;14.75;6.90;;;;;;;16.23;100.00;98152.72;5026677;28;20038;-71
2023/07/24 00:56:41;;;;;;;13.18;6.43;;;;;;;16.23;100.00;98153.53;5034378;28;20021;-73
2023/07/24 00:59:06;;;;;;;15.85;7.03;;;;;;;16.21;100.00;98161.16;5032411;28;20430;-72
2023/07/24 01:01:31;;;;;;;15.65;7.63;;;;;;;16.11;100.00;98140.06;5028147;28;20029;-73
2023/07/24 01:03:58;;;;;;;12.77;7.15;;;;;;;16.10;100.00;98156.66;5021986;28;20040;-72
2023/07/24 01:06:24;;;;;;;16.95;6.78;;;;;;;16.03;100.00;98136.94;5026546;28;20120;-73
2023/07/24 01:08:49;;;;;;;14.27;6.40;;;;;;;15.94;100.00;98131.94;5026845;28;20037;-72
2023/07/24 01:11:28;;;;;;;16.40;6.78;;;;;;;16.05;100.00;98134.78;5024601;28;20030;-72
2023/07/24 01:14:02;;;;;;;15.25;7.60;;;;;;;15.96;100.00;98116.13;5021943;28;20088;-72
2023/07/24 01:16:36;;;;;;;12.20;7.18;;;;;;;15.94;100.00;98115.56;5022998;28;20021;-72
2023/07/24 01:19:11;;;;;;;15.68;7.25;;;;;;;15.92;100.00;98125.91;5034784;28;20103;-72
2023/07/24 01:21:52;;;;;;;14.05;6.93;;;;;;;16.00;100.00;98121.91;5034712;28;20025;-72
2023/07/24 01:24:59;;;;;;;13.05;6.93;;;;;;;15.87;100.00;98117.66;5019390;28;20053;-73
2023/07/24 01:27:25;;;;;;;14.75;7.55;;;;;;;15.84;100.00;98117.34;5025810;28;20388;-72
2023/07/24 01:29:51;;;;;;;13.77;7.55;;;;;;;15.88;100.00;98107.59;5032381;28;20460;-72
2023/07/24 01:32:16;;;;;;;13.60;6.78;;;;;;;15.84;100.00;98096.34;5025153;28;20108;-72
2023/07/24 01:34:42;;;;;;;18.05;7.18;;;;;;;15.87;100.00;98114.91;5023106;28;20480;-73
2023/07/24 01:37:09;;;;;;;13.82;6.57;;;;;;;15.68;100.00;98078.94;5031856;28;20033;-73
2023/07/24 01:39:35;;;;;;;14.32;7.00;;;;;;;15.75;100.00;98095.97;5027581;28;20175;-73
2023/07/24 01:42:00;;;;;;;17.95;7.10;;;;;;;15.73;100.00;98100.84;5030000;28;20546;-72
2023/07/24 01:44:26;;;;;;;10.98;6.60;;;;;;;15.75;100.00;98100.59;5026768;28;20025;-72
2023/07/24 01:46:51;;;;;;;13.02;6.28;;;;;;;15.62;100.00;98099.06;5031462;28;20059;-72
2023/07/24 01:49:16;;;;;;;12.98;6.28;;;;;;;15.52;100.00;98102.47;5033414;28;20105;-72
2023/07/24 01:51:41;;;;;;;10.82;6.40;;;;;;;15.50;100.00;98101.06;5030065;28;20033;-72
2023/07/24 01:54:07;;;;;;;13.88;6.18;;;;;;;15.39;100.00;98102.84;5032227;28;20040;-72
2023/07/24 01:56:35;;;;;;;13.48;7.38;;;;;;;15.35;100.00;98104.41;5033247;28;20056;-72
2023/07/24 01:59:00;;;;;;;13.90;7.00;;;;;;;15.42;100.00;98115.94;5022781;28;20038;-72
2023/07/24 02:01:25;;;;;;;13.65;6.78;;;;;;;15.39;100.00;98119.19;5025962;28;20037;-72
2023/07/24 02:03:51;;;;;;;12.40;6.60;;;;;;;15.38;100.00;98123.00;5024570;28;20466;-72
2023/07/24 02:06:16;;;;;;;14.48;6.63;;;;;;;15.17;100.00;98102.81;5020213;28;20025;-72
2023/07/24 02:08:47;;;;;;;15.25;7.22;;;;;;;15.25;100.00;98116.00;5017108;28;20543;-72
2023/07/24 02:11:12;;;;;;;12.23;6.70;;;;;;;15.20;100.00;98115.94;5023251;28;20096;-71
2023/07/24 02:13:37;;;;;;;12.88;6.63;;;;;;;15.17;100.00;98107.41;5032494;28;20033;-72
2023/07/24 02:16:03;;;;;;;15.23;7.22;;;;;;;15.26;100.00;98116.81;5042786;28;20553;-72
2023/07/24 02:18:28;;;;;;;16.05;6.95;;;;;;;15.16;100.00;98094.88;5027380;28;20022;-73
2023/07/24 02:20:53;;;;;;;14.32;7.28;;;;;;;15.29;100.00;98111.69;5035828;28;20030;-73
2023/07/24 02:23:18;;;;;;;13.35;7.25;;;;;;;15.34;100.00;98110.94;5025301;28;20022;-73
2023/07/24 02:25:44;;;;;;;13.38;7.30;;;;;;;15.37;100.00;98115.06;5023943;28;20534;-73
2023/07/24 02:28:09;;;;;;;18.45;7.53;;;;;;;15.41;100.00;98117.03;5017201;28;20025;-73
2023/07/24 02:30:38;;;;;;;14.57;7.13;;;;;;;15.29;100.00;98097.25;5031746;28;20108;-73
2023/07/24 02:33:03;;;;;;;;;;;;;;;15.45;100.00;98120.91;5029825;28;20026;-73
2023/07/24 02:35:29;;;;;;;12.97;6.63;;;;;;;15.42;100.00;98115.94;5030654;22;20286;-71
2023/07/24 02:37:54;;;;;;;12.95;6.65;;;;;;;15.51;100.00;98130.81;5002718;28;20368;-71
2023/07/24 02:40:19;;;;;;;14.45;7.00;;;;;;;15.47;100.00;98105.13;5006033;28;20455;-71
2023/07/24 02:42:44;;;;;;;12.68;6.70;;;;;;;15.54;100.00;98110.41;5003729;28;20044;-71
2023/07/24 02:45:10;;;;;;;15.73;6.95;;;;;;;15.55;100.00;98107.41;4987868;28;20022;-71
2023/07/24 02:47:36;;;;;;;15.88;7.20;;;;;;;15.58;100.00;98103.34;4997011;28;20030;-70
2023/07/24 02:50:01;;;;;;;14.45;6.75;;;;;;;15.48;100.00;98093.16;5023861;28;20040;-71
2023/07/24 02:52:27;;;;;;;12.80;7.50;;;;;;;15.46;100.00;98094.47;5027227;28;20098;-72
2023/07/24 02:54:52;;;;;;;14.13;7.00;;;;;;;15.51;100.00;98081.75;5032945;28;20069;-71
2023/07/24 02:57:17;;;;;;;11.57;6.57;;;;;;;15.49;100.00;98083.88;5011639;28;20024;-72
2023/07/24 02:59:43;;;;;;;14.10;7.20;;;;;;;15.41;100.00;98070.69;5031854;28;20032;-72
2023/07/24 03:02:08;;;;;;;15.00;7.07;;;;;;;15.41;100.00;98076.16;5031584;28;20037;-72
2023/07/24 03:04:33;;;;;;;14.65;7.47;;;;;;;15.42;100.00;98077.78;5011630;28;20037;-70
2023/07/24 03:07:00;;;;;;;13.75;6.95;;;;;;;15.38;100.00;98073.94;4988784;28;20109;-71
2023/07/24 03:09:25;;;;;;;11.77;6.38;;;;;;;15.41;100.00;98064.44;5010703;28;20021;-70
2023/07/24 03:11:50;;;;;;;12.57;6.57;;;;;;;15.50;100.00;98069.16;5010664;28;20026;-71
2023/07/24 03:14:16;;;;;;;13.88;6.88;;;;;;;15.51;100.00;98070.00;4975707;28;20480;-70
2023/07/24 03:16:41;;;;;;;14.20;6.88;;;;;;;15.43;100.00;98071.28;4986544;28;20509;-70
2023/07/24 03:19:06;;;;;;;10.55;5.80;;;;;;;15.34;100.00;98045.53;5004337;28;20032;-70
2023/07/24 03:21:31;;;;;;;13.75;6.80;;;;;;;15.32;100.00;98055.84;4997376;28;20096;-70
2023/07/24 03:23:57;;;;;;;13.30;7.07;;;;;;;15.26;100.00;98056.88;5009260;28;20030;-70
2023/07/24 03:26:22;;;;;;;12.48;7.10;;;;;;;15.21;100.00;98060.34;4987247;28;20053;-71
2023/07/24 03:28:47;;;;;;;16.58;7.57;;;;;;;15.25;100.00;98044.34;4998723;28;20030;-70
2023/07/24 03:31:13;;;;;;;12.98;6.68;;;;;;;15.20;100.00;98057.88;4996452;28;20026;-71
2023/07/24 03:33:38;;;;;;;13.90;7.25;;;;;;;15.11;100.00;98054.75;4994432;28;20034;-73
2023/07/24 03:36:03;;;;;;;15.30;6.07;;;;;;;15.06;100.00;98041.91;4993055;28;20022;-72
2023/07/24 03:38:29;;;;;;;13.07;6.25;;;;;;;15.08;100.00;98050.63;4993575;28;20044;-71
2023/07/24 03:40:54;;;;;;;13.75;6.93;;;;;;;15.01;100.00;98044.56;5002520;28;20100;-71
2023/07/24 03:43:19;;;;;;;13.43;6.70;;;;;;;15.03;100.00;98053.28;4988176;28;20022;-75
2023/07/24 03:45:45;;;;;;;15.48;7.38;;;;;;;15.11;100.00;98044.66;5003282;28;20053;-75
2023/07/24 03:48:10;;;;;;;16.23;7.93;;;;;;;15.18;100.00;98054.56;5009365;28;20028;-75
2023/07/24 03:50:35;;;;;;;16.40;7.45;;;;;;;15.17;100.00;98042.00;4992330;28;20029;-74
2023/07/24 03:53:01;;;;;;;15.15;7.95;;;;;;;15.25;100.00;98033.44;4991783;28;20504;-74
2023/07/24 03:55:26;;;;;;;13.38;7.40;;;;;;;15.31;100.00;98043.31;4993971;28;20099;-75
2023/07/24 03:57:51;;;;;;;13.70;8.10;;;;;;;15.35;100.00;98041.72;5008695;28;20471;-77
2023/07/24 04:00:18;;;;;;;16.13;7.40;;;;;;;15.48;100.00;98049.53;5013467;28;20022;-78
2023/07/24 04:02:44;;;;;;;13.32;7.03;;;;;;;15.46;100.00;98040.78;5026622;28;20371;-78
2023/07/24 04:05:09;;;;;;;12.35;6.13;;;;;;;15.49;100.00;98045.72;4996795;28;20037;-72
2023/07/24 04:07:34;;;;;;;12.85;6.78;;;;;;;15.52;100.00;98047.94;5013786;28;20030;-72
2023/07/24 04:10:02;;;;;;;14.20;7.65;;;;;;;15.53;100.00;98051.47;5019689;28;20053;-76
2023/07/24 04:12:29;;;;;;;13.77;7.43;;;;;;;15.63;100.00;98056.25;5016935;28;20034;-77
2023/07/24 04:14:54;;;;;;;12.15;6.20;;;;;;;15.55;100.00;98052.06;5027439;28;20033;-77
2023/07/24 04:17:20;;;;;;;12.73;6.95;;;;;;;15.55;100.00;98052.06;5022717;28;20056;-78
2023/07/24 04:19:45;;;;;;;12.85;6.90;;;;;;;15.70;100.00;98059.63;5014194;28;20057;-71
2023/07/24 04:22:10;;;;;;;14.90;7.28;;;;;;;15.81;100.00;98061.41;5025600;28;20030;-70
2023/07/24 04:24:35;;;;;;;20.00;8.25;;;;;;;15.76;100.00;98043.06;5022518;28;20041;-71
2023/07/24 04:27:01;;;;;;;14.27;7.28;;;;;;;15.86;100.00;98058.72;5011939;28;20042;-70
2023/07/24 04:29:26;;;;;;;15.38;7.28;;;;;;;15.97;100.00;98043.28;5010529;28;20046;-74
2023/07/24 04:31:52;;;;;;;11.43;5.93;;;;;;;16.07;100.00;98042.59;5008366;28;20026;-71
2023/07/24 04:34:17;;;;;;;13.48;5.78;;;;;;;16.15;100.00;98026.56;5019011;28;20109;-71
2023/07/24 04:36:43;;;;;;;11.18;6.22;;;;;;;16.23;100.00;98019.00;5018422;28;20093;-74
2023/07/24 04:39:08;;;;;;;10.77;6.28;;;;;;;16.35;100.00;98008.72;5008083;28;20121;-77
2023/07/24 04:41:33;;;;;;;10.75;6.00;;;;;;;16.51;100.00;98004.22;4997932;28;20038;-74
2023/07/24 04:43:58;;;;;;;9.80;5.35;;;;;;;16.61;100.00;97991.47;5010275;28;20030;-75
2023/07/24 04:46:24;;;;;;;13.60;6.20;;;;;;;16.78;100.00;97990.50;5008637;28;20088;-75
2023/07/24 04:48:49;;;;;;;10.15;5.72;;;;;;;16.88;100.00;97973.34;5007910;28;20173;-75
2023/07/24 04:51:14;;;;;;;10.65;5.72;;;;;;;16.98;100.00;97954.28;5006558;28;20030;-74
2023/07/24 04:53:39;;;;;;;12.38;5.97;;;;;;;17.14;100.00;97972.38;5010584;28;20467;-73
2023/07/24 04:56:05;;;;;;;15.73;6.65;;;;;;;17.24;100.00;97950.56;5013244;28;20025;-73
2023/07/24 04:58:30;;;;;;;11.73;6.60;;;;;;;17.28;100.00;97924.31;5009184;28;20026;-72
2023/07/24 05:00:55;;;;;;;12.32;6.57;;;;;;;17.35;100.00;97928.72;5011802;28;20053;-73
2023/07/24 05:03:21;;;;;;;12.23;6.20;;;;;;;17.38;100.00;97930.94;5014266;28;20474;-73
2023/07/24 05:05:54;;;;;;;11.77;6.80;;;;;;;17.30;100.00;97905.75;5007331;28;20098;-73
2023/07/24 05:08:19;;;;;;;12.43;6.45;;;;;;;17.37;100.00;97915.59;5002767;28;20065;-79
2023/07/24 05:10:45;;;;;;;13.93;6.43;;;;;;;17.41;100.00;97916.72;4994253;28;20054;-76
2023/07/24 05:13:10;;;;;;;14.07;6.55;;;;;;;17.41;100.00;97909.31;5002025;28;20022;-74
2023/07/24 05:15:35;;;;;;;13.23;6.53;;;;;;;17.38;100.00;97898.94;5005074;28;20022;-73
2023/07/24 05:18:00;;;;;;;11.73;6.13;;;;;;;17.58;100.00;97909.09;5005803;28;20037;-73
2023/07/24 05:20:26;;;;;;;17.92;6.75;;;;;;;17.66;100.00;97896.81;5008802;28;20083;-73
2023/07/24 05:22:51;;;;;;;12.07;5.35;;;;;;;17.89;100.00;97907.25;5005218;28;20052;-73
2023/07/24 05:25:16;;;;;;;10.52;5.72;;;;;;;18.09;100.00;97911.09;5006036;28;20017;-73
2023/07/24 05:27:42;;;;;;;11.63;5.95;;;;;;;18.29;100.00;97899.31;5008202;28;20479;-73
2023/07/24 05:30:07;;;;;;;12.00;5.68;;;;;;;18.36;100.00;97878.72;5001990;28;20014;-75
2023/07/24 05:32:38;;;;;;;11.10;5.65;;;;;;;18.50;100.00;97900.09;5019604;28;20021;-80
2023/07/24 05:35:03;;;;;;;11.70;5.70;;;;;;;18.65;100.00;97885.53;4988267;28;20045;-77
2023/07/24 05:37:28;;;;;;;11.10;6.07;;;;;;;18.59;100.00;97885.53;5012595;28;20527;-77
2023/07/24 05:39:54;;;;;;;9.90;5.50;;;;;;;18.67;100.00;97910.72;4988452;28;20117;-77
2023/07/24 05:42:20;;;;;;;10.40;5.05;;;;;;;18.62;100.00;97920.59;5014214;28;20388;-74
2023/07/24 05:44:45;;;;;;;12.88;6.00;;;;;;;18.20;100.00;97931.88;4993099;28;20117;-76
2023/07/24 05:47:10;;;;;;;12.68;5.68;;;;;;;18.29;100.00;97943.13;5014948;28;20375;-75
2023/07/24 05:49:35;;;;;;;8.85;5.20;;;;;;;18.19;100.00;97933.00;4993815;28;20029;-75
2023/07/24 05:52:01;;;;;;;12.25;5.88;;;;;;;18.24;100.00;97943.13;4994836;28;20025;-75
2023/07/24 05:54:26;;;;;;;8.70;5.40;;;;;;;18.25;100.00;97936.53;5017076;28;20022;-75
2023/07/24 05:56:52;;;;;;;9.90;5.63;;;;;;;18.30;100.00;97939.28;4999362;28;20030;-75
2023/07/24 05:59:17;;;;;;;12.55;5.57;;;;;;;18.33;100.00;97927.78;4999327;28;20475;-73
2023/07/24 06:01:42;;;;;;;9.65;5.70;;;;;;;18.36;100.00;97946.38;4987048;28;20105;-80
2023/07/24 06:04:07;;;;;;;12.88;5.88;;;;;;;18.30;100.00;97962.00;4997322;28;20030;-79
2023/07/24 06:06:36;;;;;;;14.25;5.72;;;;;;;18.26;100.00;97960.06;5001010;28;20088;-80
2023/07/24 06:09:02;;;;;;;14.75;6.60;;;;;;;18.24;100.00;97970.50;4999148;28;20030;-79
2023/07/24 06:11:28;;;;;;;14.43;6.60;;;;;;;18.04;100.00;97961.16;5013994;28;20097;-74
2023/07/24 06:13:53;;;;;;;13.63;6.50;;;;;;;17.98;100.00;97961.44;5016500;28;20018;-80
2023/07/24 06:16:37;;;;;;;14.07;6.47;;;;;;;17.96;100.00;97958.97;5019120;28;20033;-81
2023/07/24 06:19:03;;;;;;;13.65;6.05;;;;;;;18.06;100.00;97967.19;5002418;28;20081;-80
2023/07/24 06:21:28;;;;;;;12.20;6.18;;;;;;;18.11;100.00;97950.78;4983119;28;20036;-79
2023/07/24 06:23:54;;;;;;;10.10;5.90;;;;;;;18.10;100.00;97938.19;5007069;28;20113;-73
2023/07/24 06:26:19;;;;;;;13.93;6.43;;;;;;;18.27;100.00;97959.81;5010633;28;20026;-73
2023/07/24 06:28:44;;;;;;;16.27;7.03;;;;;;;18.16;100.00;97944.50;5008224;28;20018;-73
2023/07/24 06:31:10;;;;;;;10.88;6.22;;;;;;;18.21;100.00;97936.28;4985598;28;20442;-73
2023/07/24 06:33:35;;;;;;;16.73;6.57;;;;;;;18.36;100.00;97933.50;4991864;28;20054;-74
2023/07/24 06:36:00;;;;;;;12.75;6.10;;;;;;;18.54;100.00;97921.16;4992562;28;20038;-73
2023/07/24 06:38:25;;;;;;;11.50;6.40;;;;;;;18.83;100.00;97904.13;4989496;28;20476;-74
2023/07/24 06:40:51;;;;;;;11.15;5.97;;;;;;;19.02;100.00;97905.19;4993798;28;20091;-73
2023/07/24 06:43:16;;;;;;;11.75;5.22;;;;;;;19.25;100.00;97887.22;4995196;28;20030;-73
2023/07/24 06:45:41;;;;;;;12.55;6.13;;;;;;;19.37;100.00;97886.91;5008319;28;20109;-73
2023/07/24 06:48:07;;;;;;;11.65;5.55;;;;;;;19.46;100.00;97874.22;4990907;28;20030;-73
2023/07/24 06:50:32;;;;;;;13.07;5.55;;;;;;;19.62;100.00;97872.22;4998310;28;20113;-73
2023/07/24 06:52:57;;;;;;;8.82;5.32;;;;;;;19.63;100.00;97867.53;5005592;28;20121;-73
2023/07/24 06:55:23;;;;;;;10.68;6.05;;;;;;;19.84;100.00;97869.06;4997825;28;20034;-74
2023/07/24 06:57:48;;;;;;;11.98;5.15;;;;;;;20.06;100.00;97865.03;4992765;28;20080;-73
2023/07/24 07:00:15;;;;;;;13.48;5.55;;;;;;;20.34;100.00;97855.97;5010105;28;20579;-73
2023/07/24 07:02:40;;;;;;;10.88;5.45;;;;;;;20.54;100.00;97849.50;4987095;28;20030;-73
2023/07/24 07:05:05;;;;;;;9.65;5.50;;;;;;;20.87;100.00;97855.13;5011732;28;20072;-73
2023/07/24 07:07:31;;;;;;;10.57;5.47;;;;;;;21.06;100.00;97844.16;4998051;28;20049;-74
2023/07/24 07:09:56;;;;;;;12.43;5.22;;;;;;;21.48;100.00;97848.03;5002478;28;20411;-73
2023/07/24 07:12:22;;;;;;;15.35;6.05;;;;;;;21.69;100.00;97839.44;5012164;28;20062;-73
2023/07/24 07:14:47;;;;;;;12.75;5.65;;;;;;;21.66;100.00;97843.63;5008543;28;20594;-73
2023/07/24 07:17:12;;;;;;;13.35;5.88;;;;;;;21.54;100.00;97844.09;5007620;28;20021;-74
2023/07/24 07:19:38;;;;;;;11.43;5.57;;;;;;;21.53;100.00;97845.19;5007527;28;20093;-74
2023/07/24 07:22:03;;;;;;;10.57;5.40;;;;;;;21.40;100.00;97856.94;4980885;28;20033;-73
2023/07/24 07:24:29;;;;;;;11.40;5.30;;;;;;;21.40;100.00;97857.75;4998664;28;20030;-74
2023/07/24 07:26:54;;;;;;;13.38;5.72;;;;;;;21.22;100.00;97870.38;5010104;28;20033;-74
2023/07/24 07:29:20;;;;;;;10.82;5.60;;;;;;;20.95;100.00;97887.47;5014237;28;20029;-73
2023/07/24 07:31:45;;;;;;;14.27;6.63;;;;;;;20.93;100.00;97878.72;4987172;28;20049;-74
2023/07/24 07:34:10;;;;;;;11.55;5.85;;;;;;;20.97;100.00;97881.69;4994808;28;20056;-74
2023/07/24 07:36:35;;;;;;;14.25;5.70;;;;;;;20.83;100.00;97881.59;5005600;28;20080;-74
2023/07/24 07:39:04;;;;;;;11.93;5.85;;;;;;;20.82;100.00;97884.63;5002669;28;20090;-80
2023/07/24 07:42:02;;;;;;;10.48;5.82;;;;;;;20.91;100.00;97883.69;5013345;28;20087;-81
2023/07/24 07:44:28;;;;;;;15.63;5.57;;;;;;;21.04;100.00;97895.06;4995844;28;20030;-80
2023/07/24 07:46:58;;;;;;;11.70;5.70;;;;;;;21.10;100.00;97903.00;5015583;28;20447;-80
2023/07/24 07:49:23;;;;;;;13.57;6.00;;;;;;;20.97;100.00;97901.75;5003900;28;20475;-78
2023/07/24 07:51:48;;;;;;;9.55;5.80;;;;;;;20.99;100.00;97918.78;4984440;28;20084;-72
2023/07/24 07:54:15;;;;;;;12.20;5.53;;;;;;;21.01;100.00;97915.72;4993332;28;20108;-72
2023/07/24 07:56:40;;;;;;;12.40;6.00;;;;;;;20.86;100.00;97907.69;5007067;28;20080;-73
2023/07/24 07:59:06;;;;;;;12.45;6.13;;;;;;;20.87;100.00;97939.56;5009057;28;20038;-73
2023/07/24 08:01:32;;;;;;;14.75;5.82;;;;;;;20.57;100.00;97944.28;5011534;28;20460;-79
2023/07/24 08:03:57;;;;;;;13.77;5.95;;;;;;;20.42;100.00;97942.44;5012355;28;20029;-81
2023/07/24 08:06:24;;;;;;;15.15;6.45;;;;;;;20.45;100.00;97957.53;4995287;28;20029;-78
2023/07/24 08:08:49;;;;;;;14.48;6.03;;;;;;;20.43;100.00;97970.72;5011317;28;20026;-80
2023/07/24 08:11:14;;;;;;;13.65;6.75;;;;;;;20.35;100.00;97981.22;4996488;28;20026;-80
2023/07/24 08:13:40;;;;;;;10.63;6.32;;;;;;;20.48;100.00;97976.19;4994118;28;20471;-78
2023/07/24 08:16:17;;;;;;;13.52;6.28;;;;;;;20.44;100.00;97975.13;5013049;28;20097;-80
2023/07/24 08:18:42;;;;;;;12.30;7.07;;;;;;;20.18;100.00;97971.78;4981380;28;20023;-81
2023/07/24 08:21:07;;;;;;;14.23;7.18;;;;;;;20.01;100.00;97989.44;5016716;28;20052;-79
2023/07/24 08:23:34;;;;;;;13.90;6.68;;;;;;;19.88;100.00;97995.56;5002690;28;20030;-80
2023/07/24 08:25:59;;;;;;;15.98;7.43;;;;;;;19.69;100.00;98000.91;5005364;28;20045;-79
2023/07/24 08:28:24;;;;;;;12.20;6.65;;;;;;;19.42;100.00;97993.03;5026554;28;20025;-80
2023/07/24 08:30:59;;;;;;;11.80;6.32;;;;;;;19.25;100.00;97996.09;5025908;28;20026;-73
2023/07/24 08:33:24;;;;;;;14.00;6.95;;;;;;;19.10;100.00;97990.66;5018988;28;20030;-73
2023/07/24 08:36:06;;;;;;;15.07;6.80;;;;;;;19.05;100.00;97992.34;5054003;22;20175;-49
2023/07/24 08:38:32;;;;;;;15.32;7.03;;;;;;;18.95;100.00;97981.41;5045851;28;20037;-48
2023/07/24 08:41:12;;;;;;;13.60;6.75;;;;;;;18.96;100.00;97980.28;5035321;28;20073;-49
2023/07/24 08:43:38;;;;;;;;;;;;;;;18.89;100.00;97973.44;5019894;28;20025;-49
2023/07/24 08:46:04;;;;;;;15.13;7.15;;;;;;;18.85;100.00;97975.94;5039750;28;19919;-49
2023/07/24 08:48:35;;;;;;;14.20;6.63;;;;;;;18.79;100.00;97971.56;5028015;28;20145;-49
2023/07/24 08:51:02;;;;;;;17.40;7.88;;;;;;;18.77;100.00;97952.66;5030705;28;20112;-49
2023/07/24 08:53:29;;;;;;;12.73;7.13;;;;;;;18.86;100.00;97944.69;5015810;28;20040;-49
2023/07/24 08:55:55;;;;;;;14.18;6.97;;;;;;;18.90;100.00;97937.56;5027116;28;20029;-48
2023/07/24 08:58:20;;;;;;;13.85;7.25;;;;;;;18.87;100.00;97932.63;5037984;28;20041;-48
2023/07/24 09:00:46;;;;;;;16.15;7.07;;;;;;;18.95;100.00;97923.84;5029422;28;20072;-48
2023/07/24 09:03:11;;;;;;;15.90;7.35;;;;;;;19.01;100.00;97925.44;5028407;28;20029;-48
2023/07/24 09:05:37;;;;;;;13.38;7.82;;;;;;;19.18;100.00;97910.59;5023068;28;20084;-48
2023/07/24 09:08:02;;;;;;;17.30;8.00;;;;;;;19.35;100.00;97904.75;5022751;28;20029;-48
2023/07/24 09:10:28;;;;;;;16.42;7.57;;;;;;;19.59;100.00;97894.72;5032824;28;20026;-48
2023/07/24 09:12:54;;;;;;;15.05;7.70;;;;;;;20.07;100.00;97925.16;5030033;28;20025;-48
2023/07/24 09:15:20;;;;;;;15.63;7.32;;;;;;;20.72;100.00;97908.38;5022003;28;20039;-48
2023/07/24 09:17:52;;;;;;;11.60;6.47;;;;;;;21.64;100.00;97903.66;5027242;28;20033;-49
2023/07/24 09:20:19;;;;;;;11.75;7.15;;;;;;;22.02;100.00;97901.69;5028615;28;20036;-48
2023/07/24 09:22:52;;;;;;;14.13;7.57;;;;;;;22.96;100.00;97888.75;5041535;28;20029;-48
2023/07/24 09:25:18;;;;;;;12.15;6.07;;;;;;;24.16;100.00;97886.66;5032414;28;20052;-48
2023/07/24 09:27:44;;;;;;;12.85;5.80;;;;;;;24.87;100.00;97870.16;5040456;28;20122;-47
2023/07/24 09:30:16;;;;;;;11.80;6.15;;;;;;;25.79;100.00;97867.41;5025010;28;20334;-47
2023/07/24 09:32:42;;;;;;;15.10;6.50;;;;;;;25.48;100.00;97857.28;5025865;28;20432;-47
2023/07/24 09:35:20;;;;;;;12.52;6.45;;;;;;;25.10;100.00;97859.81;5026611;28;20060;-48
2023/07/24 09:37:46;;;;;;;11.43;6.22;;;;;;;24.57;100.00;97866.25;5023933;28;20029;-48
2023/07/24 09:40:14;;;;;;;10.27;6.10;;;;;;;24.97;100.00;97864.31;5037252;28;20476;-48
2023/07/24 09:42:40;;;;;;;10.63;6.43;;;;;;;25.17;100.00;97862.94;5029993;28;20041;-51
2023/07/24 09:45:08;;;;;;;9.07;5.07;;;;;;;25.44;100.00;97870.16;5038163;28;20030;-52
2023/07/24 09:47:34;;;;;;;10.82;5.30;;;;;;;25.42;100.00;97855.00;5032181;28;20056;-51
2023/07/24 09:50:04;;;;;;;13.73;6.00;;;;;;;26.08;100.00;97854.88;5044954;28;20025;-51
2023/07/24 09:52:30;;;;;;;13.30;5.78;;;;;;;26.09;100.00;97845.41;5049761;28;20025;-51
2023/07/24 09:55:25;;;;;;;8.85;5.53;;;;;;;26.24;100.00;97851.22;5043152;28;20024;-51
2023/07/24 09:57:53;;;;;;;11.95;6.18;;;;;;;25.51;100.00;97859.41;5029705;28;20034;-51
2023/07/24 10:00:20;;;;;;;9.85;5.75;;;;;;;24.69;100.00;97872.03;5021142;28;20029;-51
2023/07/24 10:02:47;;;;;;;11.98;6.32;;;;;;;24.19;100.00;97878.56;5030119;28;20037;-51
2023/07/24 10:05:13;;;;;;;10.73;5.93;;;;;;;23.75;100.00;97882.13;5024668;28;20025;-50
2023/07/24 10:07:39;;;;;;;14.95;6.95;;;;;;;23.20;100.00;97891.31;5027332;28;20385;-51
2023/07/24 10:10:05;;;;;;;11.98;6.05;;;;;;;23.27;100.00;97894.47;5019008;28;20030;-51
2023/07/24 10:12:32;;;;;;;17.33;6.53;;;;;;;23.11;100.00;97898.69;5026027;28;20026;-51
2023/07/24 10:14:58;;;;;;;15.40;6.88;;;;;;;22.72;100.00;97905.50;5026633;28;20116;-51
2023/07/24 10:17:41;;;;;;;13.88;6.72;;;;;;;22.37;100.00;97910.50;5023328;28;20036;-52
2023/07/24 10:20:09;;;;;;;15.68;6.82;;;;;;;22.02;100.00;97909.16;5025091;28;20021;-51
2023/07/24 10:22:37;;;;;;;13.88;6.72;;;;;;;21.69;100.00;97917.34;5015060;28;20462;-51
2023/07/24 10:25:04;;;;;;;16.77;7.28;;;;;;;21.51;100.00;97937.44;5031960;28;20045;-51
2023/07/24 10:27:29;;;;;;;17.33;7.10;;;;;;;21.38;100.00;97942.56;5025369;28;20083;-51
2023/07/24 10:30:03;;;;;;;21.45;7.20;;;;;;;21.04;100.00;97944.59;5039060;28;20017;-51
2023/07/24 10:32:29;;;;;;;16.33;6.75;;;;;;;20.74;100.00;97958.38;5023775;28;20037;-51
2023/07/24 10:35:11;;;;;;;12.90;6.88;;;;;;;20.46;100.00;97965.50;5023050;28;20037;-51
2023/07/24 10:37:37;;;;;;;13.60;7.53;;;;;;;20.30;100.00;97974.94;5031919;28;20120;-51
2023/07/24 10:40:04;;;;;;;15.63;8.00;;;;;;;20.24;100.00;97982.41;5022918;28;20120;-52
2023/07/24 10:42:33;;;;;;;14.18;6.90;;;;;;;20.08;100.00;97972.66;5020707;28;20030;-51
2023/07/24 10:45:10;;;;;;;12.57;6.90;;;;;;;19.83;100.00;97979.13;5019229;28;20073;-51
2023/07/24 10:47:35;;;;;;;12.77;6.57;;;;;;;19.70;100.00;98003.38;5022865;28;20029;-51
2023/07/24 10:50:02;;;;;;;13.10;6.75;;;;;;;19.61;100.00;98013.25;5020898;28;20389;-52
2023/07/24 10:52:30;;;;;;;17.40;7.40;;;;;;;19.56;100.00;98020.69;5025563;28;20061;-52
2023/07/24 10:54:55;;;;;;;13.18;6.47;;;;;;;19.47;100.00;98015.78;5029431;28;20022;-52
2023/07/24 10:57:27;;;;;;;12.60;6.97;;;;;;;19.40;100.00;98011.69;5043263;28;20044;-52
2023/07/24 10:59:53;;;;;;;11.60;6.80;;;;;;;19.25;100.00;98018.03;5030361;28;20033;-52
2023/07/24 11:02:18;;;;;;;12.48;6.60;;;;;;;19.12;100.00;98013.16;5021620;28;20028;-52
2023/07/24 11:04:44;;;;;;;11.52;6.18;;;;;;;18.97;100.00;98017.59;5022104;28;20087;-52
2023/07/24 11:07:10;;;;;;;14.00;6.28;;;;;;;18.83;100.00;98031.03;5031343;28;20329;-52
2023/07/24 11:09:43;;;;;;;12.65;6.32;;;;;;;18.74;100.00;98037.31;5021491;28;20032;-52
2023/07/24 11:12:13;;;;;;;15.35;6.63;;;;;;;18.66;100.00;98035.94;5028005;28;20029;-52
2023/07/24 11:14:49;;;;;;;12.70;6.72;;;;;;;18.64;100.00;98020.88;5021901;28;20033;-51